Terminal Aerodrome Forecast
Issued by NWS Shreveport, LA

Home | Current Version | Previous Version | Text Only | Print | Product List | Glossary On
Versions: 1 2 3 4 5 6 7 8 9 10 11 12 13 14 15 16 17
000
FTUS44 KSHV 142300
TAFLFK
TAF
KLFK 142337Z 1500/1524 05004KT P6SM SCT035 BKN250
     FM150500 VRB03KT P6SM BKN020
      TEMPO 1511/1513 4SM BR
     FM151500 13004KT P6SM SCT020 BKN250
     FM151900 13005KT P6SM SCT035 BKN250=

USA.gov is the U.S. government's official web portal to all federal, state and local government web resources and services.